createdAt,value
2023-03-06T00:02:41.970Z,100896.63
2023-03-06T00:07:47.377Z,100891.06
2023-03-06T00:12:53.716Z,100884.97
2023-03-06T00:17:58.311Z,100891.75
2023-03-06T00:23:03.923Z,100877.34
2023-03-06T00:28:07.975Z,100880.34
2023-03-06T00:33:12.172Z,100882.19
2023-03-06T00:38:17.658Z,100872.00
2023-03-06T00:43:21.642Z,100855.19
2023-03-06T00:48:25.856Z,100856.09
2023-03-06T00:53:31.270Z,100858.97
2023-03-06T00:58:35.337Z,100861.53
2023-03-06T01:03:39.443Z,100848.28
2023-03-06T01:08:45.247Z,100853.25
2023-03-06T01:13:49.414Z,100837.63
2023-03-06T01:18:53.528Z,100838.59
2023-03-06T01:23:58.996Z,100835.84
2023-03-06T01:29:03.536Z,100841.00
2023-03-06T01:34:07.699Z,100828.41
2023-03-06T01:39:13.215Z,100831.63
2023-03-06T01:44:17.371Z,100820.91
2023-03-06T01:49:24.953Z,100816.09
2023-03-06T01:54:36.955Z,100808.09
2023-03-06T01:59:43.601Z,100807.69
2023-03-06T02:04:48.463Z,100817.03
2023-03-06T02:09:53.840Z,100803.91
2023-03-06T02:15:00.695Z,100797.00
2023-03-06T02:20:12.522Z,100791.06
2023-03-06T02:25:35.291Z,100784.94
2023-03-06T02:30:41.471Z,100775.09
2023-03-06T02:35:51.490Z,100766.19
2023-03-06T02:40:58.130Z,100767.75
2023-03-06T02:46:06.660Z,100773.88
2023-03-06T02:51:11.192Z,100762.97
2023-03-06T02:56:17.930Z,100754.19
2023-03-06T03:01:23.201Z,100742.63
2023-03-06T03:06:27.934Z,100742.94
2023-03-06T03:11:34.538Z,100743.84
2023-03-06T03:16:40.072Z,100733.53
2023-03-06T03:21:47.442Z,100731.56
2023-03-06T03:26:53.602Z,100734.69
2023-03-06T03:32:00.091Z,100733.72
2023-03-06T03:37:04.387Z,100715.66
2023-03-06T03:42:10.246Z,100702.94
2023-03-06T03:47:14.793Z,100705.59
2023-03-06T03:52:18.904Z,100706.22
2023-03-06T03:57:24.661Z,100702.19
2023-03-06T04:02:30.693Z,100695.50
2023-03-06T04:07:44.571Z,100690.78
2023-03-06T04:12:50.341Z,100685.84
2023-03-06T04:17:54.926Z,100688.88
2023-03-06T04:23:03.437Z,100686.38
2023-03-06T04:28:10.452Z,100682.91
2023-03-06T04:33:14.647Z,100676.22
2023-03-06T04:38:20.342Z,100676.88
2023-03-06T04:43:26.106Z,100674.09
2023-03-06T04:48:30.118Z,100667.38
2023-03-06T04:53:34.538Z,100659.59
2023-03-06T04:58:41.194Z,100665.06
2023-03-06T05:03:45.828Z,100659.66
2023-03-06T05:08:50.221Z,100648.31
2023-03-06T05:13:56.124Z,100648.28
2023-03-06T05:19:00.617Z,100642.97
2023-03-06T05:24:04.916Z,100644.19
2023-03-06T05:29:10.269Z,100639.94
2023-03-06T05:34:15.920Z,100648.41
2023-03-06T05:39:20.216Z,100636.78
2023-03-06T05:44:25.645Z,100632.44
2023-03-06T05:49:34.710Z,100629.00
2023-03-06T05:54:38.700Z,100624.78
2023-03-06T05:59:46.285Z,100636.09
2023-03-06T06:04:50.467Z,100633.03
2023-03-06T06:09:54.958Z,100630.34
2023-03-06T06:15:00.740Z,100628.56
2023-03-06T06:20:06.199Z,100628.66
2023-03-06T06:25:11.091Z,100618.66
2023-03-06T06:30:17.446Z,100613.09
2023-03-06T06:35:22.178Z,100617.75
2023-03-06T06:40:27.664Z,100612.00
2023-03-06T06:45:33.632Z,100623.44
2023-03-06T06:50:38.567Z,100629.41
2023-03-06T06:55:43.074Z,100630.06
2023-03-06T07:00:48.709Z,100628.88
2023-03-06T07:05:57.733Z,100636.13
2023-03-06T07:11:08.003Z,100632.53
2023-03-06T07:16:13.536Z,100640.44
2023-03-06T07:21:17.697Z,100637.41
2023-03-06T07:26:21.940Z,100629.50
2023-03-06T07:31:28.794Z,100624.88
2023-03-06T07:36:34.137Z,100626.28
2023-03-06T07:41:38.351Z,100621.75
2023-03-06T07:46:43.854Z,100630.66
2023-03-06T07:51:47.907Z,100628.75
2023-03-06T07:56:52.615Z,100625.34
2023-03-06T08:01:58.172Z,100635.91
2023-03-06T08:07:03.480Z,100640.66
2023-03-06T08:12:08.479Z,100636.25
2023-03-06T08:17:13.886Z,100633.78
2023-03-06T08:22:17.854Z,100627.06
2023-03-06T08:27:21.817Z,100635.63
2023-03-06T08:32:28.950Z,100637.84
2023-03-06T08:37:33.110Z,100625.59
2023-03-06T08:42:37.293Z,100635.81
2023-03-06T08:47:42.642Z,100631.78
2023-03-06T08:52:46.610Z,100622.06
2023-03-06T08:57:50.599Z,100623.63
2023-03-06T09:02:56.005Z,100624.97
2023-03-06T09:08:00.328Z,100629.09
2023-03-06T09:13:04.413Z,100628.19
2023-03-06T09:18:09.882Z,100621.16
2023-03-06T09:23:13.885Z,100633.75
2023-03-06T09:28:18.049Z,100621.16
2023-03-06T09:33:24.054Z,100631.78
2023-03-06T09:38:29.526Z,100627.38
2023-03-06T09:43:37.010Z,100636.94
2023-03-06T09:48:55.309Z,100625.97
2023-03-06T09:54:06.879Z,100629.50
2023-03-06T09:59:17.822Z,100621.00
2023-03-06T10:04:37.247Z,100628.56
2023-03-06T10:09:47.005Z,100628.38
2023-03-06T10:15:03.169Z,100619.41
2023-03-06T10:20:26.244Z,100626.06
2023-03-06T10:25:34.477Z,100630.44
2023-03-06T10:30:46.009Z,100626.81
2023-03-06T10:35:53.521Z,100618.34
2023-03-06T10:41:08.227Z,100611.16
2023-03-06T10:46:14.961Z,100609.41
2023-03-06T10:51:23.851Z,100603.16
2023-03-06T10:56:32.876Z,100602.69
2023-03-06T11:01:37.517Z,100593.16
2023-03-06T11:06:43.143Z,100593.28
2023-03-06T11:11:47.288Z,100577.94
2023-03-06T11:16:54.100Z,100566.44
2023-03-06T11:22:05.562Z,100560.25
2023-03-06T11:27:23.429Z,100555.47
2023-03-06T11:32:32.349Z,100550.22
2023-03-06T11:37:47.537Z,100557.28
2023-03-06T11:42:57.553Z,100559.53
2023-03-06T11:48:21.095Z,100547.91
2023-03-06T11:53:33.829Z,100543.09
2023-03-06T11:58:55.184Z,100545.38
2023-03-06T12:04:56.298Z,100536.00
2023-03-06T12:10:15.414Z,100528.63
2023-03-06T12:15:41.823Z,100535.44
2023-03-06T12:21:01.418Z,100528.75
2023-03-06T12:26:23.622Z,100528.88
2023-03-06T12:31:57.975Z,100527.16
2023-03-06T12:37:12.870Z,100517.28
2023-03-06T12:43:00.742Z,100507.19
2023-03-06T12:48:12.733Z,100508.47
2023-03-06T12:53:25.942Z,100500.06
2023-03-06T12:58:50.419Z,100491.97
2023-03-06T13:04:30.169Z,100476.72
2023-03-06T13:09:45.982Z,100471.47
2023-03-06T13:15:01.357Z,100470.28
2023-03-06T13:20:39.049Z,100462.66
2023-03-06T13:25:51.448Z,100449.03
2023-03-06T13:30:57.146Z,100451.16
2023-03-06T13:36:21.482Z,100457.13
2023-03-06T13:41:57.236Z,100450.00
2023-03-06T13:47:06.302Z,100453.13
2023-03-06T13:52:20.850Z,100448.22
2023-03-06T13:57:50.656Z,100440.72
2023-03-06T14:03:57.287Z,100428.16
2023-03-06T14:09:03.495Z,100429.78
2023-03-06T14:14:10.606Z,100425.53
2023-03-06T14:19:18.970Z,100423.44
2023-03-06T14:24:35.648Z,100427.75
2023-03-06T14:29:39.681Z,100418.31
2023-03-06T14:34:46.696Z,100410.06
2023-03-06T14:39:52.495Z,100394.13
2023-03-06T14:45:07.450Z,100388.72
2023-03-06T14:50:24.510Z,100385.00
2023-03-06T14:55:31.462Z,100376.75
2023-03-06T15:00:42.473Z,100362.09
2023-03-06T15:05:48.160Z,100359.19
2023-03-06T15:11:03.326Z,100339.91
2023-03-06T15:16:10.574Z,100337.34
2023-03-06T15:21:21.290Z,100341.00
2023-03-06T15:26:33.368Z,100335.00
2023-03-06T15:31:38.743Z,100323.84
2023-03-06T15:36:45.387Z,100313.31
2023-03-06T15:41:59.232Z,100316.63
2023-03-06T15:47:08.801Z,100304.50
2023-03-06T15:52:13.301Z,100307.91
2023-03-06T15:57:23.960Z,100300.41
2023-03-06T16:02:28.034Z,100271.19
2023-03-06T16:07:32.252Z,100274.50
2023-03-06T16:12:37.732Z,100279.75
2023-03-06T16:17:41.980Z,100268.41
2023-03-06T16:22:47.546Z,100265.59
2023-03-06T16:27:56.884Z,100279.22
2023-03-06T16:33:01.947Z,100259.25
2023-03-06T16:38:06.446Z,100269.84
2023-03-06T16:43:13.584Z,100265.13
2023-03-06T16:48:18.253Z,100267.03
2023-03-06T16:53:22.446Z,100259.16
2023-03-06T16:58:28.432Z,100250.03
2023-03-06T17:03:32.445Z,100245.75
2023-03-06T17:08:36.530Z,100249.78
2023-03-06T17:13:42.479Z,100240.72
2023-03-06T17:18:47.530Z,100240.72
2023-03-06T17:23:51.668Z,100243.28
2023-03-06T17:28:57.231Z,100247.97
2023-03-06T17:34:01.337Z,100244.63
2023-03-06T17:39:06.181Z,100239.94
2023-03-06T17:44:12.196Z,100253.91
2023-03-06T17:49:19.386Z,100243.81
2023-03-06T17:54:26.136Z,100243.44
2023-03-06T17:59:34.010Z,100238.94
2023-03-06T18:04:38.089Z,100228.38
2023-03-06T18:09:44.718Z,100211.09
2023-03-06T18:14:50.812Z,100222.69
2023-03-06T18:19:56.874Z,100211.69
2023-03-06T18:25:01.020Z,100207.38
2023-03-06T18:30:08.158Z,100201.84
2023-03-06T18:35:12.241Z,100180.06
2023-03-06T18:40:20.441Z,100172.06
2023-03-06T18:45:26.044Z,100173.00
2023-03-06T18:50:30.346Z,100168.06
2023-03-06T18:55:34.464Z,100160.53
2023-03-06T19:00:39.849Z,100154.28
2023-03-06T19:05:46.390Z,100136.72
2023-03-06T19:10:50.575Z,100137.16
2023-03-06T19:15:57.251Z,100140.94
2023-03-06T19:21:12.580Z,100127.03
2023-03-06T19:26:18.941Z,100120.78
2023-03-06T19:31:26.777Z,100110.25
2023-03-06T19:36:34.019Z,100113.03
2023-03-06T19:41:38.161Z,100095.00
2023-03-06T19:46:43.930Z,100078.78
2023-03-06T19:51:48.003Z,100070.28
2023-03-06T19:56:52.592Z,100069.06
2023-03-06T20:01:58.250Z,100063.69
2023-03-06T20:07:04.838Z,100057.81
2023-03-06T20:12:09.239Z,100044.69
2023-03-06T20:17:14.618Z,100034.44
2023-03-06T20:22:19.594Z,100036.06
2023-03-06T20:27:23.699Z,100022.28
2023-03-06T20:32:29.360Z,100022.97
2023-03-06T20:37:33.518Z,100023.38
2023-03-06T20:42:37.705Z,100017.16
2023-03-06T20:47:46.904Z,100010.22
2023-03-06T20:52:54.911Z,100014.66
2023-03-06T20:57:59.084Z,100018.06
2023-03-06T21:03:04.495Z,100010.59
2023-03-06T21:08:08.695Z,100003.66
2023-03-06T21:13:12.776Z,99986.38
2023-03-06T21:18:18.329Z,99986.25
2023-03-06T21:23:22.437Z,99978.09
2023-03-06T21:28:26.705Z,99978.19
2023-03-06T21:33:32.212Z,99973.75
2023-03-06T21:38:37.122Z,99970.94
2023-03-06T21:43:41.832Z,99968.59
2023-03-06T21:48:47.291Z,99951.88
2023-03-06T21:53:52.506Z,99960.41
2023-03-06T21:58:58.076Z,99955.00
2023-03-06T22:04:04.025Z,99941.22
2023-03-06T22:09:08.592Z,99944.97
2023-03-06T22:14:15.036Z,99934.78
2023-03-06T22:19:22.826Z,99920.75
2023-03-06T22:24:26.968Z,99924.25
2023-03-06T22:29:31.315Z,99914.06
2023-03-06T22:34:36.804Z,99924.38
2023-03-06T22:39:41.852Z,99924.16
2023-03-06T22:44:46.232Z,99912.09
2023-03-06T22:49:51.726Z,99912.22
2023-03-06T22:54:55.797Z,99919.22
2023-03-06T22:59:59.850Z,99923.69
2023-03-06T23:05:05.971Z,99905.91
2023-03-06T23:10:12.022Z,99913.50
2023-03-06T23:15:38.047Z,99907.19
2023-03-06T23:21:05.989Z,99926.50
2023-03-06T23:26:31.430Z,99916.53
2023-03-06T23:31:35.628Z,99912.66
2023-03-06T23:36:41.775Z,99910.34
2023-03-06T23:41:46.168Z,99904.50
2023-03-06T23:46:50.499Z,99908.59
2023-03-06T23:51:56.177Z,99893.88
2023-03-06T23:57:00.279Z,99896.81
